sensor_id;sensor_type;location;lat;lon;timestamp;temperature;humidity
13978;DHT22;7063;49.260;8.636;2024-01-30T10:56:21;5.90;1.00
13978;DHT22;7063;49.260;8.636;2024-01-30T10:58:51;7.60;99.90
13978;DHT22;7063;49.260;8.636;2024-01-30T11:01:23;7.60;1.00
13978;DHT22;7063;49.260;8.636;2024-01-30T11:03:53;7.60;1.00
13978;DHT22;7063;49.260;8.636;2024-01-30T11:06:22;7.60;1.00
13978;DHT22;7063;49.260;8.636;2024-01-30T11:09:04;7.70;1.00
13978;DHT22;7063;49.260;8.636;2024-01-30T11:11:48;7.70;1.00
13978;DHT22;7063;49.260;8.636;2024-01-30T11:14:14;7.70;1.00
13978;DHT22;7063;49.260;8.636;2024-01-30T11:16:40;7.70;1.00
13978;DHT22;7063;49.260;8.636;2024-01-30T11:19:10;7.70;1.00
13978;DHT22;7063;49.260;8.636;2024-01-30T11:21:43;7.80;1.00
13978;DHT22;7063;49.260;8.636;2024-01-30T11:24:09;8.00;1.00
13978;DHT22;7063;49.260;8.636;2024-01-30T11:26:34;8.10;1.00
13978;DHT22;7063;49.260;8.636;2024-01-30T11:29:03;8.10;1.00
13978;DHT22;7063;49.260;8.636;2024-01-30T11:31:30;8.10;1.00
13978;DHT22;7063;49.260;8.636;2024-01-30T11:33:56;8.20;1.00
13978;DHT22;7063;49.260;8.636;2024-01-30T11:36:25;8.20;1.00
13978;DHT22;7063;49.260;8.636;2024-01-30T11:38:51;8.40;1.00
13978;DHT22;7063;49.260;8.636;2024-01-30T11:41:17;8.50;1.00
13978;DHT22;7063;49.260;8.636;2024-01-30T11:43:50;8.70;1.00
13978;DHT22;7063;49.260;8.636;2024-01-30T11:46:16;8.80;99.90
13978;DHT22;7063;49.260;8.636;2024-01-30T11:48:41;8.90;99.90
13978;DHT22;7063;49.260;8.636;2024-01-30T11:51:07;8.90;99.90
13978;DHT22;7063;49.260;8.636;2024-01-30T11:53:33;8.90;99.90
13978;DHT22;7063;49.260;8.636;2024-01-30T16:53:41;9.00;99.90
13978;DHT22;7063;49.260;8.636;2024-01-30T16:56:07;8.40;99.90
13978;DHT22;7063;49.260;8.636;2024-01-30T16:58:33;8.30;99.90
13978;DHT22;7063;49.260;8.636;2024-01-30T17:00:58;8.40;99.90
13978;DHT22;7063;49.260;8.636;2024-01-30T17:03:24;8.30;99.90
13978;DHT22;7063;49.260;8.636;2024-01-30T17:05:50;8.30;99.90
13978;DHT22;7063;49.260;8.636;2024-01-30T17:08:22;8.40;99.90
13978;DHT22;7063;49.260;8.636;2024-01-30T17:10:48;8.40;99.90
13978;DHT22;7063;49.260;8.636;2024-01-30T17:13:13;8.40;99.90
13978;DHT22;7063;49.260;8.636;2024-01-30T17:15:39;8.30;99.90
13978;DHT22;7063;49.260;8.636;2024-01-30T17:18:04;8.40;99.90
13978;DHT22;7063;49.260;8.636;2024-01-30T17:20:30;8.30;99.90
13978;DHT22;7063;49.260;8.636;2024-01-30T17:22:56;8.30;99.90
13978;DHT22;7063;49.260;8.636;2024-01-30T17:25:21;8.30;99.90
13978;DHT22;7063;49.260;8.636;2024-01-30T17:27:47;8.40;99.90
13978;DHT22;7063;49.260;8.636;2024-01-30T17:30:21;8.40;99.90
13978;DHT22;7063;49.260;8.636;2024-01-30T17:32:47;8.40;99.90
13978;DHT22;7063;49.260;8.636;2024-01-30T17:35:12;8.40;99.90
13978;DHT22;7063;49.260;8.636;2024-01-30T17:37:38;8.30;99.90
13978;DHT22;7063;49.260;8.636;2024-01-30T17:40:06;8.30;99.90
13978;DHT22;7063;49.260;8.636;2024-01-30T17:42:32;8.30;99.90
13978;DHT22;7063;49.260;8.636;2024-01-30T17:44:57;8.30;99.90
13978;DHT22;7063;49.260;8.636;2024-01-30T17:47:23;8.20;99.90
13978;DHT22;7063;49.260;8.636;2024-01-30T17:49:49;8.20;99.90
13978;DHT22;7063;49.260;8.636;2024-01-30T17:52:14;8.10;99.90
13978;DHT22;7063;49.260;8.636;2024-01-30T17:54:41;8.10;99.90
13978;DHT22;7063;49.260;8.636;2024-01-30T17:57:07;8.10;99.90
13978;DHT22;7063;49.260;8.636;2024-01-30T17:59:32;8.10;99.90
13978;DHT22;7063;49.260;8.636;2024-01-30T18:01:58;8.10;99.90
13978;DHT22;7063;49.260;8.636;2024-01-30T18:04:24;8.10;99.90
13978;DHT22;7063;49.260;8.636;2024-01-30T18:09:16;8.10;99.90
13978;DHT22;7063;49.260;8.636;2024-01-30T18:11:41;8.10;99.90
13978;DHT22;7063;49.260;8.636;2024-01-30T18:14:07;8.10;99.90
13978;DHT22;7063;49.260;8.636;2024-01-30T18:16:32;8.10;99.90
13978;DHT22;7063;49.260;8.636;2024-01-30T18:18:58;8.10;99.90
13978;DHT22;7063;49.260;8.636;2024-01-30T18:21:23;8.10;99.90
13978;DHT22;7063;49.260;8.636;2024-01-30T18:23:49;8.10;99.90
13978;DHT22;7063;49.260;8.636;2024-01-30T18:26:14;8.00;99.90
13978;DHT22;7063;49.260;8.636;2024-01-30T18:28:41;7.90;99.90
13978;DHT22;7063;49.260;8.636;2024-01-30T18:31:07;7.90;99.90
13978;DHT22;7063;49.260;8.636;2024-01-30T18:33:33;7.90;99.90
13978;DHT22;7063;49.260;8.636;2024-01-30T18:35:58;7.80;99.90
13978;DHT22;7063;49.260;8.636;2024-01-30T18:38:24;7.80;99.90
13978;DHT22;7063;49.260;8.636;2024-01-30T18:40:49;7.80;99.90
13978;DHT22;7063;49.260;8.636;2024-01-30T18:43:15;7.80;99.90
13978;DHT22;7063;49.260;8.636;2024-01-30T18:45:41;7.80;99.90
13978;DHT22;7063;49.260;8.636;2024-01-30T18:48:06;7.70;99.90
13978;DHT22;7063;49.260;8.636;2024-01-30T18:50:32;7.70;99.90
13978;DHT22;7063;49.260;8.636;2024-01-30T18:52:57;7.70;99.90
13978;DHT22;7063;49.260;8.636;2024-01-30T18:55:23;7.60;99.90
13978;DHT22;7063;49.260;8.636;2024-01-30T18:57:48;7.60;99.90
13978;DHT22;7063;49.260;8.636;2024-01-30T19:00:14;7.50;99.90
13978;DHT22;7063;49.260;8.636;2024-01-30T19:02:40;7.50;99.90
13978;DHT22;7063;49.260;8.636;2024-01-30T19:05:05;7.40;99.90
13978;DHT22;7063;49.260;8.636;2024-01-30T19:07:31;7.50;99.90
